Time;durP1;ratioP1;P1;durP2;ratioP2;P2;SDS_P1;SDS_P2;PMS_P1;PMS_P2;Temp;Humidity;BMP_temperature;BMP_pressure;BME280_temperature;BME280_humidity;BME280_pressure;Samples;Min_cycle;Max_cycle;Signal;HPM_P1;HPM_P2
2021/06/02 00:00:06;;;;;;;6.95;3.60;;;19.20;89.50;;;;;;5001185;28;20026;-74
2021/06/02 00:02:32;;;;;;;4.72;2.83;;;19.00;90.40;;;;;;5000208;28;20296;-76
2021/06/02 00:05:01;;;;;;;6.03;2.80;;;19.00;90.90;;;;;;5000021;28;20520;-78
2021/06/02 00:07:26;;;;;;;9.90;2.95;;;18.90;92.20;;;;;;4993403;28;20139;-75
2021/06/02 00:09:53;;;;;;;4.90;2.80;;;18.90;92.30;;;;;;5006506;28;20497;-77
2021/06/02 00:12:20;;;;;;;4.18;2.70;;;18.90;93.10;;;;;;5013554;28;20041;-76
2021/06/02 00:14:46;;;;;;;3.85;2.88;;;18.80;93.80;;;;;;5015655;28;20026;-77
2021/06/02 00:17:13;;;;;;;11.60;3.35;;;18.80;93.60;;;;;;5024728;28;20049;-77
2021/06/02 00:19:38;;;;;;;5.43;2.78;;;18.90;93.80;;;;;;5022059;28;20510;-76
2021/06/02 00:22:06;;;;;;;7.10;2.88;;;18.80;94.10;;;;;;5006822;28;20026;-76
2021/06/02 00:24:34;;;;;;;5.57;2.53;;;18.90;93.70;;;;;;5013862;28;20022;-78
2021/06/02 00:27:04;;;;;;;5.97;2.78;;;19.00;93.90;;;;;;5020930;28;20065;-77
2021/06/02 00:29:33;;;;;;;9.13;2.60;;;19.00;94.00;;;;;;5024876;28;20024;-77
2021/06/02 00:32:01;;;;;;;4.50;3.10;;;19.10;93.70;;;;;;5015500;28;20026;-76
2021/06/02 00:34:27;;;;;;;4.20;2.95;;;19.00;93.40;;;;;;5021998;28;20009;-77
2021/06/02 00:36:53;;;;;;;4.30;3.00;;;19.10;93.70;;;;;;5029776;28;20059;-77
2021/06/02 00:39:19;;;;;;;8.15;2.97;;;19.10;93.50;;;;;;5013179;28;20080;-77
2021/06/02 00:41:53;;;;;;;4.38;2.90;;;19.20;93.50;;;;;;5011628;28;20027;-76
2021/06/02 00:44:20;;;;;;;7.07;3.20;;;19.10;93.30;;;;;;5008798;28;20458;-77
2021/06/02 00:46:46;;;;;;;7.82;2.90;;;19.10;93.30;;;;;;5001520;28;20018;-75
2021/06/02 00:49:22;;;;;;;6.22;3.38;;;19.00;93.80;;;;;;5008543;28;20019;-76
2021/06/02 00:51:57;;;;;;;4.03;2.85;;;18.90;93.70;;;;;;5009421;28;20426;-76
2021/06/02 00:54:24;;;;;;;7.50;3.47;;;18.90;93.90;;;;;;5000757;28;20025;-75
2021/06/02 00:56:54;;;;;;;5.30;3.10;;;19.00;94.20;;;;;;4998889;28;20443;-76
2021/06/02 00:59:31;;;;;;;4.68;3.35;;;18.80;94.40;;;;;;4995135;28;20026;-75
2021/06/02 01:01:58;;;;;;;7.43;3.80;;;18.80;95.10;;;;;;5002227;28;20172;-78
2021/06/02 01:04:26;;;;;;;7.72;3.67;;;18.80;94.90;;;;;;4999687;28;20023;-75
2021/06/02 01:06:52;;;;;;;7.03;3.85;;;18.70;95.20;;;;;;5006530;28;20037;-75
2021/06/02 01:09:21;;;;;;;5.75;3.30;;;18.60;95.90;;;;;;5003509;28;20030;-75
2021/06/02 01:11:49;;;;;;;9.23;3.70;;;18.60;95.90;;;;;;5006354;28;20049;-76
2021/06/02 01:14:16;;;;;;;5.38;3.58;;;18.60;95.90;;;;;;5014333;28;20049;-77
2021/06/02 01:16:43;;;;;;;5.32;3.53;;;18.70;95.80;;;;;;5008923;28;20041;-75
2021/06/02 01:19:11;;;;;;;8.18;4.18;;;18.50;96.30;;;;;;4996018;28;20019;-76
2021/06/02 01:21:51;;;;;;;7.13;4.95;;;18.40;97.10;;;;;;5008568;28;20022;-76
2021/06/02 01:24:16;;;;;;;10.07;5.78;;;18.10;98.80;;;;;;5002836;28;20033;-76
2021/06/02 01:26:42;;;;;;;11.40;6.20;;;18.00;99.20;;;;;;4999620;28;20101;-77
2021/06/02 01:29:08;;;;;;;9.35;6.20;;;17.80;99.90;;;;;;5002666;28;20087;-76
2021/06/02 01:31:42;;;;;;;8.63;5.80;;;17.70;99.90;;;;;;5007019;28;20036;-76
2021/06/02 01:34:43;;;;;;;9.38;5.97;;;17.70;99.90;;;;;;5013993;28;20022;-77
2021/06/02 01:37:38;;;;;;;7.63;5.10;;;17.60;99.70;;;;;;5006216;28;20030;-77
2021/06/02 01:40:41;;;;;;;10.07;5.78;;;17.50;99.90;;;;;;5022772;28;20082;-76
2021/06/02 01:43:37;;;;;;;6.65;5.00;;;17.40;99.90;;;;;;5027113;28;20022;-77
2021/06/02 01:46:07;;;;;;;9.93;5.70;;;17.40;99.90;;;;;;5021968;28;20018;-76
2021/06/02 01:48:35;;;;;;;7.40;5.22;;;17.30;99.90;;;;;;5005463;28;20035;-76
2021/06/02 01:51:28;;;;;;;5.40;4.70;;;17.20;99.90;;;;;;5006421;28;20026;-77
2021/06/02 01:54:09;;;;;;;;;;;17.10;99.90;;;;;;5019066;28;20026;-77
2021/06/02 01:56:50;;;;;;;7.43;5.55;;;17.00;99.90;;;;;;5021419;28;19934;-76
2021/06/02 01:59:43;;;;;;;8.75;5.90;;;16.90;99.90;;;;;;5013361;28;20041;-77
2021/06/02 02:02:41;;;;;;;11.48;6.15;;;16.90;99.90;;;;;;5017396;28;20065;-76
2021/06/02 02:05:28;;;;;;;14.27;5.30;;;16.90;99.90;;;;;;5019413;28;20033;-77
2021/06/02 02:08:28;;;;;;;9.27;6.25;;;17.00;99.90;;;;;;5027158;28;20013;-77
2021/06/02 02:11:28;;;;;;;9.85;5.78;;;16.80;99.90;;;;;;5019730;28;20027;-75
2021/06/02 02:14:32;;;;;;;7.35;5.05;;;16.70;99.90;;;;;;5009652;28;20025;-76
2021/06/02 02:17:23;;;;;;;8.07;5.05;;;16.70;99.90;;;;;;4991710;28;20046;-74
2021/06/02 02:20:07;;;;;;;8.52;5.53;;;16.70;99.90;;;;;;5018278;28;20018;-76
2021/06/02 02:22:48;;;;;;;10.45;5.70;;;16.70;99.90;;;;;;5014613;28;20021;-77
2021/06/02 02:25:24;;;;;;;8.38;6.00;;;16.80;99.90;;;;;;5026558;28;20034;-77
2021/06/02 02:28:26;;;;;;;6.97;5.28;;;16.70;99.90;;;;;;5034996;28;20010;-77
2021/06/02 02:31:21;;;;;;;6.67;5.60;;;16.80;99.90;;;;;;5023601;28;20038;-77
2021/06/02 02:34:00;;;;;;;13.45;6.22;;;16.60;99.90;;;;;;5025907;28;20252;-77
2021/06/02 02:36:46;;;;;;;9.30;6.65;;;16.50;99.90;;;;;;5032933;28;20110;-76
2021/06/02 02:39:27;;;;;;;9.95;6.22;;;16.40;99.90;;;;;;5028710;28;20018;-77
2021/06/02 02:42:11;;;;;;;10.70;6.10;;;16.30;99.90;;;;;;5026437;28;20030;-77
2021/06/02 02:44:58;;;;;;;8.00;5.95;;;16.30;99.90;;;;;;5034023;28;20045;-78
2021/06/02 02:47:30;;;;;;;9.55;6.72;;;16.20;99.90;;;;;;5020612;28;20590;-78
2021/06/02 02:50:11;;;;;;;9.25;7.00;;;16.10;99.90;;;;;;5009542;28;20084;-76
2021/06/02 02:53:07;;;;;;;13.02;7.03;;;16.00;99.90;;;;;;5010168;28;20087;-75
2021/06/02 02:55:35;;;;;;;10.18;7.18;;;16.00;99.90;;;;;;5019619;28;20030;-77
2021/06/02 02:58:16;;;;;;;13.10;7.85;;;16.00;99.90;;;;;;4998181;28;20088;-76
2021/06/02 03:01:07;;;;;;;12.32;8.00;;;15.90;99.90;;;;;;5010200;28;20045;-77
2021/06/02 03:03:57;;;;;;;10.75;7.65;;;15.80;99.90;;;;;;4998845;28;20415;-78
2021/06/02 03:06:33;;;;;;;11.50;7.82;;;15.80;99.90;;;;;;5006558;28;20014;-76
2021/06/02 03:09:11;;;;;;;12.50;8.43;;;15.70;99.90;;;;;;5005171;28;20060;-78
2021/06/02 03:11:36;;;;;;;13.07;7.50;;;15.70;99.90;;;;;;5002488;28;20054;-76
2021/06/02 03:14:14;;;;;;;11.77;7.45;;;15.60;99.90;;;;;;5006042;28;20038;-78
2021/06/02 03:16:47;;;;;;;10.68;7.57;;;15.60;99.90;;;;;;4997267;28;20110;-76
2021/06/02 03:19:17;;;;;;;16.10;8.55;;;15.50;99.90;;;;;;4995013;28;20030;-75
2021/06/02 03:22:09;;;;;;;15.82;8.25;;;15.50;99.90;;;;;;4998213;28;20114;-76
2021/06/02 03:24:39;;;;;;;14.35;9.07;;;15.60;99.90;;;;;;5002519;28;20046;-76
2021/06/02 03:27:18;;;;;;;14.63;8.38;;;15.60;99.90;;;;;;5005892;28;20022;-76
2021/06/02 03:30:05;;;;;;;16.15;9.15;;;15.50;99.90;;;;;;5011230;28;20031;-76
2021/06/02 03:32:56;;;;;;;13.73;8.60;;;15.50;99.90;;;;;;4998631;28;20029;-75
2021/06/02 03:35:36;;;;;;;12.68;10.32;;;15.50;99.90;;;;;;5002769;28;20018;-76
2021/06/02 03:38:17;;;;;;;12.43;9.32;;;15.50;99.90;;;;;;5005816;28;20049;-76
2021/06/02 03:40:49;;;;;;;15.20;9.57;;;15.50;99.90;;;;;;5012820;28;20024;-75
2021/06/02 03:43:37;;;;;;;12.17;9.47;;;15.60;99.90;;;;;;5005885;28;20030;-76
2021/06/02 03:46:29;;;;;;;16.15;10.25;;;15.60;99.90;;;;;;5001017;28;20030;-77
2021/06/02 03:49:01;;;;;;;;;;;15.60;99.90;;;;;;5022279;28;20029;-76
2021/06/02 03:51:36;;;;;;;12.63;9.95;;;15.50;99.90;;;;;;5001960;28;19916;-77
2021/06/02 03:54:39;;;;;;;25.15;10.60;;;15.50;99.90;;;;;;5001538;28;20453;-75
2021/06/02 03:57:34;;;;;;;16.25;9.55;;;15.50;99.90;;;;;;5007779;28;20030;-75
2021/06/02 04:00:10;;;;;;;11.77;10.50;;;15.40;99.90;;;;;;5000637;28;20041;-77
2021/06/02 04:03:01;;;;;;;13.13;10.48;;;15.30;99.90;;;;;;4997656;28;20108;-77
2021/06/02 04:05:42;;;;;;;15.80;10.43;;;15.30;99.90;;;;;;5007130;28;20218;-75
2021/06/02 04:08:33;;;;;;;20.00;10.95;;;15.40;99.90;;;;;;5003342;28;20277;-77
2021/06/02 04:11:16;;;;;;;14.75;10.20;;;15.50;99.90;;;;;;5006615;28;20081;-76
2021/06/02 04:13:59;;;;;;;15.02;10.18;;;15.50;99.90;;;;;;4966668;28;1115703;-76
2021/06/02 04:16:37;;;;;;;14.43;10.95;;;15.50;99.90;;;;;;5013465;28;20026;-78
2021/06/02 04:19:10;;;;;;;14.88;10.55;;;15.40;99.90;;;;;;5011249;28;20018;-75
2021/06/02 04:21:43;;;;;;;12.05;10.43;;;15.60;99.90;;;;;;5010699;28;20040;-77
2021/06/02 04:24:12;;;;;;;13.55;11.88;;;15.70;99.90;;;;;;5025857;28;20024;-78
2021/06/02 04:26:38;;;;;;;15.18;11.45;;;15.80;99.90;;;;;;5022157;28;20041;-75
2021/06/02 04:29:10;;;;;;;15.60;11.27;;;15.70;99.90;;;;;;5004835;28;20483;-76
2021/06/02 04:31:38;;;;;;;18.58;10.82;;;15.60;99.90;;;;;;4995497;28;20027;-76
2021/06/02 04:34:05;;;;;;;15.05;10.60;;;15.50;99.90;;;;;;5007593;28;20033;-74
2021/06/02 04:36:31;;;;;;;14.65;11.48;;;15.40;99.90;;;;;;5000602;28;20034;-73
2021/06/02 04:38:59;;;;;;;14.93;10.90;;;15.40;99.90;;;;;;5013225;28;20545;-75
2021/06/02 04:41:28;;;;;;;12.40;9.80;;;15.40;99.90;;;;;;5006027;28;20125;-77
2021/06/02 04:43:57;;;;;;;16.67;9.95;;;15.50;99.90;;;;;;5011879;28;20030;-78
2021/06/02 04:46:24;;;;;;;15.20;10.77;;;15.60;99.90;;;;;;5024735;28;20027;-78
2021/06/02 04:49:00;;;;;;;15.20;10.13;;;15.50;99.90;;;;;;5015634;28;20104;-76
2021/06/02 04:52:00;;;;;;;18.58;11.10;;;15.60;99.90;;;;;;5012135;28;20071;-74
2021/06/02 04:54:47;;;;;;;13.90;10.48;;;15.70;99.90;;;;;;5026647;28;20043;-79
2021/06/02 04:57:53;;;;;;;15.38;10.48;;;15.90;99.90;;;;;;5033021;28;20014;-76
2021/06/02 05:00:30;;;;;;;13.23;10.65;;;16.00;99.90;;;;;;5022157;28;20058;-76
2021/06/02 05:03:02;;;;;;;14.85;10.80;;;16.00;99.90;;;;;;5010453;28;20006;-78
2021/06/02 05:05:33;;;;;;;17.23;11.32;;;16.10;99.90;;;;;;5010652;28;20074;-77
2021/06/02 05:08:20;;;;;;;14.23;10.97;;;16.30;99.90;;;;;;5015479;28;20038;-78
2021/06/02 05:11:19;;;;;;;16.23;11.18;;;16.40;99.90;;;;;;5018343;28;20456;-78
2021/06/02 05:14:03;;;;;;;11.27;9.80;;;16.50;99.90;;;;;;4999395;28;20027;-77
2021/06/02 05:16:57;;;;;;;13.73;10.00;;;16.60;99.90;;;;;;5000757;28;20550;-75
2021/06/02 05:20:02;;;;;;;18.25;11.32;;;16.80;99.90;;;;;;5012868;28;20104;-77
2021/06/02 05:23:21;;;;;;;13.07;10.70;;;16.80;99.90;;;;;;5018831;28;20025;-77
2021/06/02 05:26:31;;;;;;;16.48;11.15;;;16.70;99.90;;;;;;5010205;28;20023;-77
2021/06/02 05:29:32;;;;;;;18.08;10.27;;;16.70;99.90;;;;;;5005959;28;20049;-78
2021/06/02 05:32:16;;;;;;;11.88;9.75;;;16.80;99.90;;;;;;5017959;28;20176;-75
2021/06/02 05:35:01;;;;;;;23.10;11.63;;;17.00;99.90;;;;;;5001598;28;20018;-74
2021/06/02 05:37:45;;;;;;;16.40;10.68;;;17.10;99.90;;;;;;5014107;28;20049;-77
2021/06/02 05:40:47;;;;;;;17.80;10.45;;;16.90;99.90;;;;;;5031823;28;20073;-76
2021/06/02 05:43:41;;;;;;;17.80;11.50;;;17.00;99.90;;;;;;5013215;28;20030;-76
2021/06/02 05:46:45;;;;;;;17.52;11.05;;;16.50;99.90;;;;;;5007518;28;20548;-76
2021/06/02 05:49:29;;;;;;;15.68;10.60;;;16.50;99.90;;;;;;5000859;28;20026;-77
2021/06/02 05:52:18;;;;;;;17.48;11.05;;;16.80;99.90;;;;;;5004569;28;20033;-73
2021/06/02 05:55:05;;;;;;;18.63;11.70;;;16.70;99.90;;;;;;4999644;28;20010;-76
2021/06/02 05:58:08;;;;;;;22.02;11.48;;;16.50;99.90;;;;;;5004867;28;20089;-75
2021/06/02 06:00:46;;;;;;;25.83;13.05;;;16.70;99.90;;;;;;5010830;28;20025;-75
2021/06/02 06:03:31;;;;;;;19.17;12.93;;;16.70;99.90;;;;;;5008972;28;20023;-75
2021/06/02 06:06:08;;;;;;;19.40;11.15;;;16.80;99.90;;;;;;5009224;28;20022;-75
2021/06/02 06:09:05;;;;;;;18.40;12.15;;;17.30;99.90;;;;;;5003138;28;20538;-76
2021/06/02 06:12:07;;;;;;;17.90;12.93;;;17.80;99.90;;;;;;5012935;28;20045;-76
2021/06/02 06:14:54;;;;;;;19.55;10.80;;;17.60;99.90;;;;;;5015081;28;20049;-76
2021/06/02 06:17:24;;;;;;;20.85;11.05;;;17.60;99.90;;;;;;5033172;28;20033;-76
2021/06/02 06:20:12;;;;;;;18.52;11.70;;;18.00;99.90;;;;;;5031713;28;20082;-76
2021/06/02 06:22:47;;;;;;;16.63;10.52;;;18.30;99.90;;;;;;5029724;28;20037;-76
2021/06/02 06:25:22;;;;;;;19.67;12.57;;;18.30;99.90;;;;;;5009007;28;20044;-74
2021/06/02 06:28:06;;;;;;;16.90;10.52;;;18.50;99.90;;;;;;5016298;28;20014;-76
2021/06/02 06:30:38;;;;;;;17.73;10.85;;;18.70;99.90;;;;;;5024464;28;20057;-75
2021/06/02 06:33:16;;;;;;;19.15;10.85;;;19.00;99.90;;;;;;5029692;28;20028;-77
2021/06/02 06:35:45;;;;;;;15.82;10.60;;;19.30;99.90;;;;;;5021751;28;20077;-78
2021/06/02 06:39:01;;;;;;;17.90;10.95;;;19.70;99.90;;;;;;5017251;28;20034;-76
2021/06/02 06:41:29;;;;;;;16.35;10.80;;;20.00;99.90;;;;;;4980650;28;20038;-76
2021/06/02 06:43:57;;;;;;;14.38;10.50;;;20.30;99.90;;;;;;5015640;28;20029;-77
2021/06/02 06:46:24;;;;;;;16.58;10.15;;;20.50;99.90;;;;;;5004834;28;20633;-76
2021/06/02 06:48:52;;;;;;;15.52;11.30;;;20.20;99.90;;;;;;5003309;28;20123;-75
2021/06/02 06:51:25;;;;;;;16.02;10.85;;;20.20;99.90;;;;;;5011302;28;20022;-75
2021/06/02 06:53:52;;;;;;;18.77;12.30;;;20.10;99.90;;;;;;5008838;28;20036;-74
2021/06/02 06:56:19;;;;;;;21.48;11.43;;;19.90;99.90;;;;;;5005297;28;20029;-75
2021/06/02 06:58:45;;;;;;;22.23;12.13;;;19.80;99.90;;;;;;5012553;28;20024;-78
2021/06/02 07:01:16;;;;;;;18.60;11.55;;;19.70;99.90;;;;;;5024350;28;20050;-78
2021/06/02 07:03:43;;;;;;;16.08;10.07;;;19.70;99.90;;;;;;5019589;28;20105;-75
2021/06/02 07:06:12;;;;;;;16.45;10.02;;;19.80;99.90;;;;;;5002104;28;20256;-75
2021/06/02 07:08:41;;;;;;;23.73;10.85;;;20.30;99.90;;;;;;5010288;28;20018;-77
2021/06/02 07:11:06;;;;;;;16.88;10.35;;;20.20;99.90;;;;;;4999634;28;20022;-77
2021/06/02 07:13:34;;;;;;;19.52;12.10;;;20.40;99.90;;;;;;4996923;28;20411;-76
2021/06/02 07:16:01;;;;;;;16.05;10.18;;;20.10;99.90;;;;;;5009616;28;20103;-77
2021/06/02 07:18:30;;;;;;;18.45;10.60;;;20.60;99.90;;;;;;5016356;28;20026;-78
2021/06/02 07:20:58;;;;;;;16.20;10.27;;;20.70;99.90;;;;;;5007086;28;20508;-77
2021/06/02 07:23:24;;;;;;;14.57;9.25;;;20.90;99.90;;;;;;5006614;28;20018;-76
2021/06/02 07:25:50;;;;;;;25.33;10.55;;;20.90;99.90;;;;;;5010209;28;20037;-76
2021/06/02 07:28:20;;;;;;;23.27;10.90;;;21.20;99.90;;;;;;5002315;28;20471;-75
2021/06/02 07:30:46;;;;;;;14.75;9.48;;;21.00;99.90;;;;;;4998995;28;20010;-75
2021/06/02 07:33:11;;;;;;;17.55;10.63;;;21.10;99.90;;;;;;5004635;28;20033;-76
2021/06/02 07:35:37;;;;;;;19.70;10.45;;;21.10;99.90;;;;;;5008715;28;20018;-77
2021/06/02 07:38:02;;;;;;;29.48;10.45;;;20.90;99.90;;;;;;5001072;28;20065;-75
2021/06/02 07:40:28;;;;;;;17.63;11.05;;;20.90;99.90;;;;;;5009180;28;20079;-75
2021/06/02 07:42:54;;;;;;;16.70;9.55;;;20.50;99.90;;;;;;5002985;28;20097;-75
2021/06/02 07:45:19;;;;;;;13.88;9.55;;;20.90;99.90;;;;;;5006610;28;20029;-77
2021/06/02 07:47:46;;;;;;;16.20;9.30;;;21.10;99.90;;;;;;5009398;28;20054;-77
2021/06/02 07:50:14;;;;;;;14.38;9.40;;;21.40;99.90;;;;;;5002675;28;20026;-74
2021/06/02 07:52:39;;;;;;;15.18;8.73;;;21.50;99.90;;;;;;4999461;28;20491;-76
2021/06/02 07:55:05;;;;;;;14.55;9.48;;;21.50;99.90;;;;;;5009871;28;20048;-76
2021/06/02 07:57:32;;;;;;;17.48;10.82;;;21.70;99.90;;;;;;5015458;28;20542;-76
2021/06/02 07:59:57;;;;;;;13.02;8.85;;;21.60;99.90;;;;;;5001844;28;20022;-76
2021/06/02 08:02:23;;;;;;;11.82;8.63;;;21.60;99.90;;;;;;5005120;28;20145;-73
2021/06/02 08:04:48;;;;;;;19.30;10.27;;;21.90;99.90;;;;;;5010872;28;20018;-75
2021/06/02 08:07:14;;;;;;;17.38;9.23;;;21.70;99.90;;;;;;4999431;28;20036;-75
2021/06/02 08:09:40;;;;;;;13.07;8.77;;;21.80;99.90;;;;;;4999884;28;20427;-76
2021/06/02 08:12:07;;;;;;;12.82;9.60;;;22.10;99.90;;;;;;5009183;28;20057;-77
2021/06/02 08:14:34;;;;;;;15.75;9.10;;;22.30;99.90;;;;;;5009568;28;20121;-76
2021/06/02 08:16:59;;;;;;;11.13;8.80;;;22.40;99.90;;;;;;4993918;28;20019;-76
2021/06/02 08:19:25;;;;;;;14.82;9.55;;;22.30;99.90;;;;;;4994165;28;20448;-76
2021/06/02 08:21:50;;;;;;;13.70;9.18;;;22.40;99.90;;;;;;5000618;28;20052;-77
2021/06/02 08:24:16;;;;;;;14.90;9.95;;;22.40;99.90;;;;;;5005250;28;20084;-75
2021/06/02 08:26:42;;;;;;;15.57;9.55;;;22.30;99.90;;;;;;4994788;28;20063;-76
2021/06/02 08:29:08;;;;;;;16.27;9.27;;;22.30;99.90;;;;;;5006697;28;20093;-75
2021/06/02 08:31:34;;;;;;;13.32;8.65;;;22.50;99.90;;;;;;5002927;28;20019;-77
2021/06/02 08:34:00;;;;;;;11.27;7.78;;;22.60;99.90;;;;;;5011335;28;20225;-76
2021/06/02 08:36:26;;;;;;;14.63;8.65;;;22.70;99.90;;;;;;5003769;28;20025;-77
2021/06/02 08:38:52;;;;;;;20.02;7.93;;;22.90;99.90;;;;;;4995296;28;20026;-75
2021/06/02 08:41:19;;;;;;;18.45;8.98;;;22.90;99.90;;;;;;4993764;28;20572;-76
2021/06/02 08:43:47;;;;;;;18.90;9.73;;;23.10;99.90;;;;;;4999932;28;20381;-75
2021/06/02 08:46:15;;;;;;;18.95;7.95;;;22.80;99.90;;;;;;5000598;28;20048;-75
2021/06/02 08:48:48;;;;;;;17.90;8.32;;;22.70;99.90;;;;;;5002126;28;21399;-75
2021/06/02 08:51:18;;;;;;;13.65;8.95;;;22.50;99.90;;;;;;5012676;28;20027;-75
2021/06/02 08:53:50;;;;;;;19.27;9.13;;;22.40;99.80;;;;;;5016087;28;20041;-75
2021/06/02 08:56:17;;;;;;;13.82;8.50;;;22.50;99.90;;;;;;5021129;28;20045;-76
2021/06/02 08:58:43;;;;;;;19.85;9.48;;;22.90;99.90;;;;;;5031513;28;20030;-75
2021/06/02 09:01:09;;;;;;;14.52;9.32;;;22.90;99.90;;;;;;5015773;28;20111;-76
2021/06/02 09:03:36;;;;;;;11.70;7.95;;;22.90;99.90;;;;;;5011679;28;20025;-77
2021/06/02 09:06:08;;;;;;;21.08;8.13;;;23.20;99.90;;;;;;5007898;28;20022;-76
2021/06/02 09:08:37;;;;;;;15.55;9.48;;;23.40;99.60;;;;;;5009098;28;20018;-75
2021/06/02 09:11:10;;;;;;;15.35;8.45;;;23.50;99.20;;;;;;5010895;28;20121;-76
2021/06/02 09:13:36;;;;;;;16.58;10.05;;;23.60;99.40;;;;;;5016433;28;20026;-76
2021/06/02 09:16:15;;;;;;;11.82;8.38;;;23.20;99.70;;;;;;5019305;28;20022;-76
2021/06/02 09:18:46;;;;;;;15.98;8.55;;;23.30;99.90;;;;;;5011692;28;20021;-76
2021/06/02 09:21:11;;;;;;;14.65;8.75;;;23.60;99.60;;;;;;5013167;28;20062;-76
2021/06/02 09:23:40;;;;;;;11.00;7.75;;;23.90;98.30;;;;;;5021950;28;20041;-74
2021/06/02 09:26:46;;;;;;;10.07;7.03;;;24.00;97.10;;;;;;5020775;28;20030;-76
2021/06/02 09:29:14;;;;;;;9.85;6.45;;;23.70;97.20;;;;;;5018242;28;20018;-74
2021/06/02 09:31:41;;;;;;;11.32;7.35;;;24.00;96.70;;;;;;5024574;28;20037;-75
2021/06/02 09:34:28;;;;;;;11.45;8.15;;;24.10;97.30;;;;;;5001396;28;20106;-75
2021/06/02 09:37:03;;;;;;;12.45;6.85;;;24.20;96.80;;;;;;5020140;28;20014;-75
2021/06/02 09:39:29;;;;;;;10.93;6.68;;;24.20;95.80;;;;;;5014614;28;20076;-77
2021/06/02 09:41:57;;;;;;;9.52;7.10;;;24.20;95.20;;;;;;5021039;28;20038;-73
2021/06/02 09:44:24;;;;;;;7.75;6.07;;;23.90;95.10;;;;;;5021807;28;20029;-77
2021/06/02 09:47:07;;;;;;;11.10;5.63;;;24.00;96.30;;;;;;5013561;28;20038;-75
2021/06/02 09:49:56;;;;;;;9.52;6.20;;;24.30;95.40;;;;;;5005948;28;20014;-75
2021/06/02 09:52:47;;;;;;;8.20;5.38;;;24.60;92.50;;;;;;5001948;28;20293;-76
2021/06/02 09:55:34;;;;;;;8.20;5.18;;;24.90;91.70;;;;;;5009162;28;20145;-76
2021/06/02 09:58:05;;;;;;;9.93;5.15;;;25.10;89.90;;;;;;5014841;28;20037;-75
2021/06/02 10:00:32;;;;;;;9.80;5.35;;;25.00;89.50;;;;;;5012827;28;20029;-75
2021/06/02 10:03:03;;;;;;;12.07;5.63;;;25.20;89.30;;;;;;5006592;28;20030;-75
2021/06/02 10:05:41;;;;;;;8.90;5.33;;;25.20;87.00;;;;;;5016572;28;20026;-75
2021/06/02 10:08:11;;;;;;;10.52;5.28;;;24.90;86.00;;;;;;5007826;28;20057;-76
2021/06/02 10:10:40;;;;;;;9.00;6.00;;;25.00;86.70;;;;;;5012293;28;20117;-76
2021/06/02 10:13:08;;;;;;;11.98;5.40;;;25.00;84.90;;;;;;4999832;28;20045;-75
2021/06/02 10:15:42;;;;;;;9.95;5.72;;;25.10;87.50;;;;;;5013302;28;20018;-74
2021/06/02 10:18:31;;;;;;;13.23;5.10;;;25.20;87.70;;;;;;5011904;28;20057;-76
2021/06/02 10:21:08;;;;;;;6.00;4.35;;;25.20;80.20;;;;;;5010402;28;20041;-77
2021/06/02 10:23:43;;;;;;;9.52;4.43;;;25.20;80.50;;;;;;5006491;28;20082;-75
2021/06/02 10:26:10;;;;;;;8.52;5.05;;;25.40;79.50;;;;;;5007075;28;20030;-75
2021/06/02 10:28:35;;;;;;;11.63;5.03;;;25.50;78.10;;;;;;5013302;28;20086;-76
2021/06/02 10:31:03;;;;;;;6.95;3.88;;;25.60;75.30;;;;;;5001415;28;20057;-75
2021/06/02 10:33:29;;;;;;;10.50;4.10;;;25.70;73.60;;;;;;5001865;28;20019;-76
2021/06/02 10:35:56;;;;;;;7.50;3.65;;;25.70;72.10;;;;;;5019061;28;20018;-74
2021/06/02 10:38:25;;;;;;;6.50;3.60;;;25.80;70.80;;;;;;5030506;28;20033;-75
2021/06/02 10:40:51;;;;;;;6.65;3.30;;;26.00;71.80;;;;;;5031079;28;20075;-75
2021/06/02 10:43:21;;;;;;;5.07;3.92;;;26.10;71.20;;;;;;5026293;28;20026;-75
2021/06/02 10:46:01;;;;;;;5.60;3.58;;;26.10;68.90;;;;;;5023421;28;20089;-75
2021/06/02 10:49:04;;;;;;;8.88;4.00;;;26.00;70.80;;;;;;5013031;28;20090;-75
2021/06/02 10:51:30;;;;;;;6.63;3.80;;;26.00;68.40;;;;;;4974013;28;20023;-75
2021/06/02 10:54:06;;;;;;;5.38;3.95;;;26.00;68.70;;;;;;5031880;28;20081;-75
2021/06/02 10:56:32;;;;;;;7.60;4.22;;;26.20;67.90;;;;;;5028549;28;20097;-75
2021/06/02 10:58:58;;;;;;;6.40;3.83;;;25.80;66.00;;;;;;5022226;28;20047;-75
2021/06/02 11:01:23;;;;;;;4.28;3.45;;;25.80;67.60;;;;;;5017777;28;20038;-75
2021/06/02 11:04:10;;;;;;;5.10;3.15;;;26.00;66.30;;;;;;5011818;28;20022;-79
2021/06/02 11:06:38;;;;;;;5.28;2.92;;;26.20;66.00;;;;;;4999775;28;20112;-77
2021/06/02 11:09:04;;;;;;;4.60;2.88;;;26.60;64.70;;;;;;5012536;28;20032;-77
2021/06/02 11:11:32;;;;;;;4.95;2.47;;;27.00;64.10;;;;;;4999592;28;20037;-77
2021/06/02 11:14:16;;;;;;;3.45;2.47;;;26.90;65.00;;;;;;4997302;28;20054;-78
2021/06/02 11:16:48;;;;;;;2.33;1.98;;;26.70;63.80;;;;;;5012239;28;20041;-75
2021/06/02 11:19:19;;;;;;;5.45;2.22;;;26.70;63.80;;;;;;5006553;28;20758;-74
2021/06/02 11:21:53;;;;;;;3.97;2.20;;;26.80;61.30;;;;;;4995992;28;20022;-77
2021/06/02 11:24:34;;;;;;;12.88;2.53;;;26.70;60.00;;;;;;4997940;28;20022;-78
2021/06/02 11:27:06;;;;;;;5.35;2.67;;;26.60;60.50;;;;;;5008026;28;20079;-77
2021/06/02 11:29:33;;;;;;;3.88;2.70;;;26.90;61.80;;;;;;5011214;28;20021;-77
2021/06/02 11:32:34;;;;;;;16.42;2.42;;;27.20;61.50;;;;;;5007187;28;20139;-77
2021/06/02 11:35:06;;;;;;;5.40;2.40;;;27.40;60.60;;;;;;4994606;28;20085;-78
2021/06/02 11:37:34;;;;;;;4.80;2.50;;;27.60;60.00;;;;;;5013208;28;20076;-77
2021/06/02 11:40:10;;;;;;;5.30;2.20;;;27.40;60.40;;;;;;5007219;28;20025;-76
2021/06/02 11:42:41;;;;;;;2.63;2.42;;;27.50;58.90;;;;;;5016668;28;20029;-77
2021/06/02 11:45:17;;;;;;;4.53;2.65;;;27.70;58.40;;;;;;5017918;28;20037;-75
2021/06/02 11:47:49;;;;;;;4.68;2.30;;;27.40;57.50;;;;;;5013716;28;20021;-77
2021/06/02 11:50:21;;;;;;;2.40;2.13;;;27.00;58.70;;;;;;5005276;28;20036;-76
2021/06/02 11:53:01;;;;;;;6.10;2.58;;;27.10;59.90;;;;;;5018228;28;20105;-76
2021/06/02 11:55:31;;;;;;;4.88;2.78;;;27.40;60.20;;;;;;5008596;28;20024;-76
2021/06/02 11:57:58;;;;;;;3.10;2.45;;;27.40;59.70;;;;;;5010454;28;20018;-77
2021/06/02 12:00:28;;;;;;;4.38;2.60;;;27.60;58.60;;;;;;4996407;28;20072;-74
2021/06/02 12:02:59;;;;;;;4.75;2.95;;;28.00;56.90;;;;;;5009993;28;20030;-76
2021/06/02 12:05:35;;;;;;;3.75;2.65;;;28.00;55.30;;;;;;4999660;28;20101;-75
2021/06/02 12:08:15;;;;;;;9.55;2.50;;;28.00;57.30;;;;;;5001470;28;20030;-76
2021/06/02 12:10:42;;;;;;;7.85;3.15;;;27.90;57.00;;;;;;5007268;28;20030;-77
2021/06/02 12:13:28;;;;;;;6.75;2.88;;;27.90;56.20;;;;;;5028372;28;20040;-75
2021/06/02 12:16:01;;;;;;;3.17;2.88;;;28.20;56.80;;;;;;5018042;28;20014;-75
2021/06/02 12:18:35;;;;;;;3.67;2.58;;;28.40;56.80;;;;;;5011587;28;20072;-75
2021/06/02 12:21:12;;;;;;;3.38;2.83;;;28.40;56.50;;;;;;5006911;28;20081;-76
2021/06/02 12:23:48;;;;;;;7.40;2.83;;;28.00;56.40;;;;;;5019599;28;20022;-75
2021/06/02 12:26:20;;;;;;;3.58;3.28;;;27.80;57.70;;;;;;5001980;28;20054;-74
2021/06/02 12:28:46;;;;;;;5.93;3.25;;;27.90;57.60;;;;;;4997357;28;20033;-74
2021/06/02 12:31:31;;;;;;;3.30;3.00;;;28.20;57.80;;;;;;5000272;28;20468;-74
2021/06/02 12:34:09;;;;;;;7.82;2.83;;;28.20;57.00;;;;;;5016441;28;20088;-76
2021/06/02 12:36:36;;;;;;;4.22;3.25;;;28.50;57.40;;;;;;5016036;28;20117;-76
2021/06/02 12:39:07;;;;;;;5.20;3.33;;;28.60;55.30;;;;;;5015570;28;20060;-74
2021/06/02 12:41:33;;;;;;;7.05;3.85;;;28.70;55.80;;;;;;5004902;28;20030;-76
2021/06/02 12:44:03;;;;;;;3.60;2.92;;;28.40;54.70;;;;;;4998939;28;20034;-77
2021/06/02 12:46:30;;;;;;;4.00;2.78;;;28.30;55.30;;;;;;5025825;28;20025;-74
2021/06/02 12:48:56;;;;;;;3.10;2.80;;;28.30;55.80;;;;;;4999014;28;20103;-75
2021/06/02 12:51:24;;;;;;;4.07;2.72;;;28.50;56.00;;;;;;4999162;28;20086;-76
2021/06/02 12:53:52;;;;;;;4.35;3.33;;;28.80;57.10;;;;;;5003515;28;20034;-77
2021/06/02 12:56:19;;;;;;;7.05;2.78;;;28.80;54.80;;;;;;5008001;28;20101;-76
2021/06/02 12:58:54;;;;;;;7.68;3.75;;;28.90;56.00;;;;;;4995302;28;20106;-77
2021/06/02 13:01:21;;;;;;;7.38;3.20;;;28.80;53.90;;;;;;5021277;28;20044;-75
2021/06/02 13:03:53;;;;;;;4.32;3.25;;;28.50;53.60;;;;;;5009687;28;20022;-77
2021/06/02 13:06:24;;;;;;;3.35;2.97;;;28.50;54.20;;;;;;5006385;28;20041;-76
2021/06/02 13:08:51;;;;;;;5.10;3.00;;;28.70;54.40;;;;;;4999702;28;20077;-75
2021/06/02 13:11:19;;;;;;;4.45;3.42;;;28.60;54.60;;;;;;5014902;28;20083;-77
2021/06/02 13:13:49;;;;;;;6.40;3.33;;;28.40;54.00;;;;;;5010946;28;20038;-76
2021/06/02 13:16:17;;;;;;;4.90;2.83;;;28.60;53.90;;;;;;5002710;28;20023;-77
2021/06/02 13:18:54;;;;;;;5.45;3.50;;;28.70;53.90;;;;;;4998902;28;20026;-76